createdAt,value
2023-03-05T00:02:18.031Z,1.63
2023-03-05T00:06:42.235Z,1.58
2023-03-05T00:11:10.133Z,1.67
2023-03-05T00:15:34.198Z,2.15
2023-03-05T00:20:02.171Z,1.70
2023-03-05T00:24:26.369Z,2.05
2023-03-05T00:28:52.641Z,1.90
2023-03-05T00:33:16.537Z,1.90
2023-03-05T00:37:40.625Z,1.38
2023-03-05T00:42:04.473Z,1.48
2023-03-05T00:46:30.459Z,1.53
2023-03-05T00:50:54.566Z,1.73
2023-03-05T00:55:18.933Z,1.40
2023-03-05T00:59:42.975Z,1.40
2023-03-05T01:04:09.227Z,1.43
2023-03-05T01:08:33.553Z,1.30
2023-03-05T01:12:58.365Z,1.20
2023-03-05T01:17:22.406Z,1.10
2023-03-05T01:21:48.484Z,1.20
2023-03-05T01:26:13.222Z,1.17
2023-03-05T01:30:39.456Z,1.03
2023-03-05T01:35:06.355Z,1.52
2023-03-05T01:39:32.127Z,0.80
2023-03-05T01:43:56.011Z,1.52
2023-03-05T01:48:20.009Z,1.20
2023-03-05T01:52:47.695Z,1.00
2023-03-05T01:57:17.107Z,1.20
2023-03-05T02:01:45.701Z,0.90
2023-03-05T02:06:09.756Z,1.27
2023-03-05T02:10:37.454Z,1.40
2023-03-05T02:15:03.174Z,1.37
2023-03-05T02:19:28.080Z,1.20
2023-03-05T02:23:53.331Z,1.02
2023-03-05T02:28:21.174Z,1.17
2023-03-05T02:32:45.413Z,1.20
2023-03-05T02:37:10.338Z,1.95
2023-03-05T02:41:36.789Z,1.15
2023-03-05T02:46:05.862Z,1.20
2023-03-05T02:50:30.789Z,0.90
2023-03-05T02:54:54.692Z,1.42
2023-03-05T02:59:22.137Z,1.10
2023-03-05T03:03:46.366Z,1.33
2023-03-05T03:08:10.468Z,1.30
2023-03-05T03:12:38.437Z,1.48
2023-03-05T03:16:59.642Z,1.43
2023-03-05T03:21:25.775Z,1.17
2023-03-05T03:25:49.606Z,1.75
2023-03-05T03:30:15.369Z,1.57
2023-03-05T03:34:40.758Z,1.25
2023-03-05T03:39:05.939Z,1.48
2023-03-05T03:43:30.091Z,1.50
2023-03-05T03:47:53.921Z,2.00
2023-03-05T03:52:19.373Z,1.83
2023-03-05T03:56:43.811Z,2.63
2023-03-05T04:01:07.641Z,2.00
2023-03-05T04:05:31.544Z,1.52
2023-03-05T04:09:56.991Z,1.67
2023-03-05T04:14:20.896Z,1.30
2023-03-05T04:18:44.907Z,1.30
2023-03-05T04:23:09.547Z,1.10
2023-03-05T04:27:36.109Z,1.70
2023-03-05T04:32:00.545Z,1.73
2023-03-05T04:36:24.505Z,1.25
2023-03-05T04:40:48.823Z,1.20
2023-03-05T04:45:14.305Z,1.37
2023-03-05T04:49:38.558Z,1.40
2023-03-05T04:54:02.365Z,1.40
2023-03-05T04:58:26.359Z,1.20
2023-03-05T05:02:52.736Z,1.40
2023-03-05T05:07:16.651Z,1.23
2023-03-05T05:11:41.378Z,1.10
2023-03-05T05:16:08.116Z,1.00
2023-03-05T05:20:33.580Z,1.60
2023-03-05T05:24:57.636Z,1.20
2023-03-05T05:29:18.163Z,1.30
2023-03-05T05:33:42.275Z,1.10
2023-03-05T05:38:07.650Z,1.17
2023-03-05T05:42:31.528Z,1.70
2023-03-05T05:46:55.465Z,1.70
2023-03-05T05:51:22.008Z,1.88
2023-03-05T05:55:47.538Z,1.30
2023-03-05T06:00:15.314Z,0.85
2023-03-05T06:04:40.282Z,1.30
2023-03-05T06:09:04.836Z,1.30
2023-03-05T06:13:30.061Z,1.60
2023-03-05T06:17:54.642Z,1.00
2023-03-05T06:22:18.522Z,0.70
2023-03-05T06:26:42.561Z,1.17
2023-03-05T06:31:11.410Z,1.00
2023-03-05T06:35:35.597Z,1.35
2023-03-05T06:39:59.720Z,1.10
2023-03-05T06:44:23.553Z,1.40
2023-03-05T06:48:50.042Z,1.00
2023-03-05T06:53:14.058Z,1.13
2023-03-05T06:57:38.210Z,1.10
2023-03-05T07:02:02.204Z,1.10
2023-03-05T07:06:28.613Z,1.40
2023-03-05T07:10:52.560Z,1.40
2023-03-05T07:15:16.899Z,1.60
2023-03-05T07:19:40.992Z,1.42
2023-03-05T07:24:07.037Z,1.77
2023-03-05T07:28:30.939Z,1.38
2023-03-05T07:32:54.870Z,1.35
2023-03-05T07:37:18.774Z,1.50
2023-03-05T07:41:44.041Z,1.37
2023-03-05T07:46:12.886Z,1.05
2023-03-05T07:50:36.872Z,1.10
2023-03-05T07:55:00.760Z,1.70
2023-03-05T07:59:26.094Z,1.50
2023-03-05T08:03:50.383Z,1.08
2023-03-05T08:08:14.249Z,1.20
2023-03-05T08:12:38.322Z,2.15
2023-03-05T08:17:04.573Z,1.80
2023-03-05T08:21:30.309Z,1.40
2023-03-05T08:25:54.659Z,1.80
2023-03-05T08:30:22.412Z,1.90
2023-03-05T08:34:48.156Z,1.90
2023-03-05T08:39:12.173Z,1.90
2023-03-05T08:43:36.334Z,1.50
2023-03-05T08:48:00.316Z,2.75
2023-03-05T08:52:27.470Z,2.00
2023-03-05T08:56:51.437Z,1.70
2023-03-05T09:01:15.568Z,2.10
2023-03-05T09:05:39.532Z,2.22
2023-03-05T09:10:05.734Z,1.80
2023-03-05T09:14:30.609Z,1.83
2023-03-05T09:18:54.722Z,1.90
2023-03-05T09:23:18.918Z,2.17
2023-03-05T09:27:45.561Z,2.00
2023-03-05T09:32:09.926Z,2.00
2023-03-05T09:36:34.370Z,2.07
2023-03-05T09:41:07.867Z,1.92
2023-03-05T09:45:40.493Z,2.15
2023-03-05T09:50:13.691Z,2.50
2023-03-05T09:54:41.353Z,2.77
2023-03-05T09:59:16.037Z,2.22
2023-03-05T10:03:53.039Z,2.35
2023-03-05T10:08:22.700Z,2.10
2023-03-05T10:12:49.613Z,2.25
2023-03-05T10:17:51.842Z,2.00
2023-03-05T10:22:21.007Z,2.77
2023-03-05T10:26:58.920Z,2.60
2023-03-05T10:31:37.873Z,2.25
2023-03-05T10:36:25.342Z,2.50
2023-03-05T10:40:54.535Z,2.30
2023-03-05T10:45:22.573Z,2.25
2023-03-05T10:49:51.688Z,1.40
2023-03-05T10:54:25.379Z,2.10
2023-03-05T10:58:52.744Z,1.55
2023-03-05T11:03:16.819Z,1.88
2023-03-05T11:07:40.883Z,1.90
2023-03-05T11:12:16.832Z,1.98
2023-03-05T11:16:50.883Z,2.08
2023-03-05T11:21:23.919Z,2.50
2023-03-05T11:26:01.162Z,2.10
2023-03-05T11:30:28.317Z,2.15
2023-03-05T11:34:54.716Z,2.30
2023-03-05T11:39:22.187Z,1.90
2023-03-05T11:43:46.767Z,1.88
2023-03-05T11:48:17.904Z,2.03
2023-03-05T11:52:48.051Z,1.70
2023-03-05T11:57:15.552Z,1.90
2023-03-05T12:01:45.187Z,1.65
2023-03-05T12:06:19.245Z,2.05
2023-03-05T12:10:45.291Z,2.20
2023-03-05T12:15:47.646Z,1.45
2023-03-05T12:20:19.753Z,1.38
2023-03-05T12:24:43.890Z,1.77
2023-03-05T12:29:29.896Z,1.38
2023-03-05T12:33:54.292Z,1.55
2023-03-05T12:38:31.704Z,2.07
2023-03-05T12:43:01.089Z,2.05
2023-03-05T12:47:27.169Z,2.05
2023-03-05T12:51:52.971Z,1.67
2023-03-05T12:56:25.229Z,1.90
2023-03-05T13:00:53.335Z,1.40
2023-03-05T13:05:24.430Z,1.75
2023-03-05T13:09:55.807Z,1.30
2023-03-05T13:14:39.006Z,1.52
2023-03-05T13:19:03.450Z,1.55
2023-03-05T13:23:29.893Z,1.67
2023-03-05T13:27:53.973Z,1.40
2023-03-05T13:32:26.372Z,1.48
2023-03-05T13:36:57.170Z,2.08
2023-03-05T13:41:24.646Z,2.40
2023-03-05T13:45:55.124Z,2.53
2023-03-05T13:50:25.244Z,2.58
2023-03-05T13:54:49.309Z,2.70
2023-03-05T13:59:21.811Z,2.50
2023-03-05T14:03:47.124Z,2.47
2023-03-05T14:08:21.599Z,2.00
2023-03-05T14:12:45.670Z,2.00
2023-03-05T14:17:33.423Z,2.00
2023-03-05T14:21:57.921Z,2.08
2023-03-05T14:26:31.343Z,2.10
2023-03-05T14:30:57.902Z,1.33
2023-03-05T14:35:26.072Z,1.50
2023-03-05T14:39:53.547Z,1.80
2023-03-05T14:44:19.674Z,1.42
2023-03-05T14:48:43.668Z,1.52
2023-03-05T14:53:11.919Z,1.80
2023-03-05T14:57:35.942Z,1.70
2023-03-05T15:01:59.882Z,1.52
2023-03-05T15:06:31.150Z,1.73
2023-03-05T15:10:56.649Z,1.60
2023-03-05T15:15:21.761Z,1.52
2023-03-05T15:19:47.169Z,1.35
2023-03-05T15:24:11.637Z,1.80
2023-03-05T15:28:39.980Z,1.58
2023-03-05T15:33:06.250Z,1.70
2023-03-05T15:37:30.099Z,1.77
2023-03-05T15:41:54.283Z,1.70
2023-03-05T15:46:19.949Z,1.50
2023-03-05T15:50:46.212Z,1.75
2023-03-05T15:55:12.021Z,1.70
2023-03-05T15:59:36.044Z,1.90
2023-03-05T16:04:01.400Z,2.03
2023-03-05T16:08:25.385Z,1.80
2023-03-05T16:12:51.575Z,1.80
2023-03-05T16:17:17.370Z,1.90
2023-03-05T16:21:42.734Z,1.87
2023-03-05T16:26:08.921Z,1.65
2023-03-05T16:30:33.489Z,1.80
2023-03-05T16:34:59.018Z,1.95
2023-03-05T16:39:24.563Z,1.87
2023-03-05T16:43:48.874Z,1.90
2023-03-05T16:48:12.827Z,1.80
2023-03-05T16:52:37.012Z,2.13
2023-03-05T16:57:02.575Z,1.92
2023-03-05T17:01:27.093Z,2.20
2023-03-05T17:05:51.396Z,2.70
2023-03-05T17:10:18.026Z,2.03
2023-03-05T17:14:40.058Z,2.10
2023-03-05T17:18:58.326Z,2.28
2023-03-05T17:23:16.280Z,2.13
2023-03-05T17:27:36.200Z,2.22
2023-03-05T17:31:57.183Z,2.72
2023-03-05T17:36:18.271Z,2.70
2023-03-05T17:40:37.741Z,3.30
2023-03-05T17:44:55.711Z,2.80
2023-03-05T17:49:15.393Z,2.67
2023-03-05T17:53:35.160Z,2.65
2023-03-05T17:57:53.354Z,3.10
2023-03-05T18:02:11.347Z,3.00
2023-03-05T18:06:30.603Z,2.87
2023-03-05T18:10:50.512Z,3.15
2023-03-05T18:15:11.929Z,2.83
2023-03-05T18:19:29.383Z,3.00
2023-03-05T18:23:49.193Z,3.30
2023-03-05T18:28:10.239Z,2.83
2023-03-05T18:32:31.028Z,3.40
2023-03-05T18:36:50.781Z,3.33
2023-03-05T18:41:10.469Z,3.10
2023-03-05T18:45:30.971Z,2.50
2023-03-05T18:49:48.236Z,2.67
2023-03-05T18:54:06.123Z,2.33
2023-03-05T18:58:26.252Z,2.50
2023-03-05T19:02:45.296Z,3.73
2023-03-05T19:07:03.686Z,2.83
2023-03-05T19:11:23.083Z,3.08
2023-03-05T19:15:44.414Z,3.30
2023-03-05T19:20:06.402Z,3.53
2023-03-05T19:24:26.912Z,4.60
2023-03-05T19:28:46.467Z,3.40
2023-03-05T19:33:06.382Z,3.20
2023-03-05T19:37:25.751Z,3.45
2023-03-05T19:41:43.340Z,3.40
2023-03-05T19:46:05.992Z,3.30
2023-03-05T19:50:26.926Z,3.10
2023-03-05T19:54:46.596Z,3.28
2023-03-05T19:59:04.731Z,3.63
2023-03-05T20:03:22.894Z,3.58
2023-03-05T20:07:42.369Z,2.85
2023-03-05T20:12:04.768Z,3.03
2023-03-05T20:16:25.752Z,2.43
2023-03-05T20:20:44.398Z,2.63
2023-03-05T20:25:03.835Z,2.00
2023-03-05T20:29:23.270Z,2.60
2023-03-05T20:33:41.558Z,1.92
2023-03-05T20:38:20.680Z,2.50
2023-03-05T20:42:40.386Z,2.60
2023-03-05T20:47:12.604Z,2.65
2023-03-05T20:51:33.079Z,2.80
2023-03-05T20:55:51.960Z,2.63
2023-03-05T21:00:13.803Z,2.87
2023-03-05T21:04:33.976Z,2.40
2023-03-05T21:08:52.274Z,2.30
2023-03-05T21:13:09.900Z,2.67
2023-03-05T21:17:29.685Z,2.83
2023-03-05T21:21:49.182Z,2.90
2023-03-05T21:26:07.433Z,2.97
2023-03-05T21:30:31.479Z,2.70
2023-03-05T21:34:51.259Z,2.58
2023-03-05T21:39:11.773Z,2.80
2023-03-05T21:43:32.207Z,3.10
2023-03-05T21:47:52.168Z,2.40
2023-03-05T21:52:13.167Z,2.25
2023-03-05T21:56:32.018Z,2.53
2023-03-05T22:00:50.054Z,2.92
2023-03-05T22:05:12.312Z,2.97
2023-03-05T22:09:34.129Z,2.70
2023-03-05T22:13:53.616Z,2.80
2023-03-05T22:18:11.983Z,3.00
2023-03-05T22:22:29.878Z,2.72
2023-03-05T22:26:48.938Z,2.77
2023-03-05T22:31:08.992Z,2.72
2023-03-05T22:35:27.194Z,2.70
2023-03-05T22:39:44.882Z,2.53
2023-03-05T22:44:04.367Z,2.60
2023-03-05T22:48:24.161Z,3.30
2023-03-05T22:52:42.028Z,3.23
2023-03-05T22:57:00.204Z,3.15
2023-03-05T23:01:21.061Z,3.10
2023-03-05T23:05:40.524Z,3.63
2023-03-05T23:10:03.871Z,3.77
2023-03-05T23:14:23.061Z,3.78
2023-03-05T23:18:43.996Z,3.50
2023-03-05T23:23:04.173Z,2.83
2023-03-05T23:27:21.988Z,3.85
2023-03-05T23:31:39.949Z,3.95
2023-03-05T23:36:01.014Z,3.97
2023-03-05T23:40:21.794Z,2.85
2023-03-05T23:44:40.178Z,4.15
2023-03-05T23:48:58.358Z,4.32
2023-03-05T23:53:20.734Z,4.30
2023-03-05T23:57:40.703Z,4.57
